createdAt,value
2022-12-23T00:00:33.853Z,7.42
2022-12-23T00:01:33.846Z,7.42
2022-12-23T00:02:34.051Z,7.41
2022-12-23T00:03:33.905Z,7.39
2022-12-23T00:04:33.797Z,7.41
2022-12-23T00:05:37.755Z,7.41
2022-12-23T00:06:33.797Z,7.44
2022-12-23T00:07:33.769Z,7.45
2022-12-23T00:08:33.760Z,7.44
2022-12-23T00:09:33.777Z,7.44
2022-12-23T00:10:33.761Z,7.42
2022-12-23T00:11:33.777Z,7.41
2022-12-23T00:12:33.720Z,7.42
2022-12-23T00:13:33.712Z,7.45
2022-12-23T00:14:33.720Z,7.47
2022-12-23T00:15:33.715Z,7.47
2022-12-23T00:16:33.707Z,7.45
2022-12-23T00:17:33.696Z,7.44
2022-12-23T00:18:33.661Z,7.45
2022-12-23T00:19:33.670Z,7.42
2022-12-23T00:20:33.659Z,7.44
2022-12-23T00:21:33.639Z,7.45
2022-12-23T00:22:33.628Z,7.48
2022-12-23T00:23:33.613Z,7.47
2022-12-23T00:24:33.597Z,7.47
2022-12-23T00:25:33.617Z,7.47
2022-12-23T00:26:33.578Z,7.50
2022-12-23T00:27:37.572Z,7.47
2022-12-23T00:28:33.573Z,7.50
2022-12-23T00:29:33.573Z,7.50
2022-12-23T00:30:33.559Z,7.52
2022-12-23T00:31:33.572Z,7.52
2022-12-23T00:32:33.528Z,7.51
2022-12-23T00:33:33.520Z,7.54
2022-12-23T00:34:33.504Z,7.52
2022-12-23T00:35:33.510Z,7.55
2022-12-23T00:36:33.607Z,7.57
2022-12-23T00:37:33.499Z,7.54
2022-12-23T00:38:33.470Z,7.55
2022-12-23T00:39:33.474Z,7.57
2022-12-23T00:40:33.461Z,7.57
2022-12-23T00:41:33.459Z,7.57
2022-12-23T00:42:33.431Z,7.55
2022-12-23T00:43:33.421Z,7.58
2022-12-23T00:44:33.410Z,7.60
2022-12-23T00:45:33.454Z,7.57
2022-12-23T00:46:33.423Z,7.58
2022-12-23T00:47:33.403Z,7.57
2022-12-23T00:48:33.406Z,7.58
2022-12-23T00:49:33.439Z,7.57
2022-12-23T00:50:33.369Z,7.57
2022-12-23T00:51:33.359Z,7.54
2022-12-23T00:52:33.326Z,7.52
2022-12-23T00:53:33.324Z,7.51
2022-12-23T00:54:33.316Z,7.50
2022-12-23T00:55:33.348Z,7.50
2022-12-23T00:56:33.287Z,7.48
2022-12-23T00:57:33.292Z,7.48
2022-12-23T00:58:33.268Z,7.51
2022-12-23T00:59:33.271Z,7.52
2022-12-23T01:00:33.295Z,7.54
2022-12-23T01:01:33.471Z,7.54
2022-12-23T01:02:33.324Z,7.52
2022-12-23T01:03:33.304Z,7.52
2022-12-23T01:04:33.226Z,7.51
2022-12-23T01:05:33.245Z,7.52
2022-12-23T01:06:33.203Z,7.57
2022-12-23T01:07:33.199Z,7.55
2022-12-23T01:08:33.178Z,7.55
2022-12-23T01:09:33.175Z,7.57
2022-12-23T01:10:33.175Z,7.58
2022-12-23T01:11:33.149Z,7.58
2022-12-23T01:12:33.151Z,7.58
2022-12-23T01:13:33.129Z,7.57
2022-12-23T01:14:33.120Z,7.57
2022-12-23T01:15:33.132Z,7.60
2022-12-23T01:16:33.144Z,7.60
2022-12-23T01:17:33.107Z,7.60
2022-12-23T01:18:33.091Z,7.62
2022-12-23T01:19:33.078Z,7.60
2022-12-23T01:20:33.099Z,7.62
2022-12-23T01:21:33.077Z,7.62
2022-12-23T01:22:33.055Z,7.62
2022-12-23T01:23:33.061Z,7.62
2022-12-23T01:24:33.054Z,7.58
2022-12-23T01:25:33.035Z,7.60
2022-12-23T01:26:33.002Z,7.60
2022-12-23T01:27:33.014Z,7.58
2022-12-23T01:28:32.989Z,7.57
2022-12-23T01:29:32.973Z,7.55
2022-12-23T01:30:32.978Z,7.54
2022-12-23T01:31:33.013Z,7.54
2022-12-23T01:32:32.951Z,7.55
2022-12-23T01:33:32.939Z,7.54
2022-12-23T01:34:37.167Z,7.55
2022-12-23T01:35:32.923Z,7.55
2022-12-23T01:36:32.957Z,7.54
2022-12-23T01:37:32.898Z,7.52
2022-12-23T01:38:32.888Z,7.54
2022-12-23T01:39:32.891Z,7.54
2022-12-23T01:40:32.868Z,7.55
2022-12-23T01:41:32.875Z,7.55
2022-12-23T01:42:32.855Z,7.57
2022-12-23T01:43:32.850Z,7.55
2022-12-23T01:44:32.839Z,7.55
2022-12-23T01:45:32.907Z,7.57
2022-12-23T01:46:32.923Z,7.58
2022-12-23T01:47:32.806Z,7.60
2022-12-23T01:48:32.793Z,7.58
2022-12-23T01:49:32.783Z,7.60
2022-12-23T01:50:32.805Z,7.58
2022-12-23T01:51:32.795Z,7.60
2022-12-23T01:52:32.788Z,7.58
2022-12-23T01:53:32.757Z,7.62
2022-12-23T01:54:32.731Z,7.62
2022-12-23T01:55:32.722Z,7.62
2022-12-23T01:56:32.725Z,7.62
2022-12-23T01:57:32.708Z,7.60
2022-12-23T01:58:32.690Z,7.60
2022-12-23T01:59:32.690Z,7.57
2022-12-23T02:00:32.675Z,7.60
2022-12-23T02:01:32.807Z,7.57
2022-12-23T02:02:32.801Z,7.57
2022-12-23T02:03:32.752Z,7.54
2022-12-23T02:04:32.633Z,7.55
2022-12-23T02:05:32.632Z,7.54
2022-12-23T02:06:32.635Z,7.52
2022-12-23T02:07:32.630Z,7.52
2022-12-23T02:08:32.612Z,7.57
2022-12-23T02:09:32.606Z,7.55
2022-12-23T02:10:32.582Z,7.57
2022-12-23T02:11:32.578Z,7.54
2022-12-23T02:12:32.558Z,7.54
2022-12-23T02:13:32.539Z,7.57
2022-12-23T02:14:32.555Z,7.55
2022-12-23T02:15:32.538Z,7.54
2022-12-23T02:16:32.545Z,7.54
2022-12-23T02:17:32.529Z,7.54
2022-12-23T02:18:32.489Z,7.55
2022-12-23T02:19:32.482Z,7.55
2022-12-23T02:20:32.485Z,7.55
2022-12-23T02:21:32.484Z,7.57
2022-12-23T02:22:32.452Z,7.58
2022-12-23T02:23:32.446Z,7.58
2022-12-23T02:24:32.431Z,7.63
2022-12-23T02:25:32.430Z,7.58
2022-12-23T02:26:32.455Z,7.58
2022-12-23T02:27:32.408Z,7.60
2022-12-23T02:28:32.393Z,7.58
2022-12-23T02:29:32.404Z,7.60
2022-12-23T02:30:32.397Z,7.58
2022-12-23T02:31:32.450Z,7.58
2022-12-23T02:32:32.356Z,7.58
2022-12-23T02:33:32.353Z,7.58
2022-12-23T02:34:32.359Z,7.58
2022-12-23T02:35:32.338Z,7.62
2022-12-23T02:36:32.330Z,7.60
2022-12-23T02:37:32.312Z,7.60
2022-12-23T02:38:32.308Z,7.60
2022-12-23T02:39:32.291Z,7.62
2022-12-23T02:40:32.279Z,7.58
2022-12-23T02:41:32.327Z,7.57
2022-12-23T02:42:32.272Z,7.60
2022-12-23T02:43:32.250Z,7.58
2022-12-23T02:44:32.332Z,7.58
2022-12-23T02:45:32.261Z,7.58
2022-12-23T02:46:32.293Z,7.58
2022-12-23T02:47:32.213Z,7.60
2022-12-23T02:48:32.195Z,7.62
2022-12-23T02:49:32.212Z,7.63
2022-12-23T02:50:32.220Z,7.63
2022-12-23T02:51:32.209Z,7.63
2022-12-23T02:52:32.161Z,7.62
2022-12-23T02:53:32.198Z,7.62
2022-12-23T02:54:32.133Z,7.60
2022-12-23T02:55:32.149Z,7.60
2022-12-23T02:56:32.154Z,7.62
2022-12-23T02:57:32.122Z,7.63
2022-12-23T02:58:32.142Z,7.66
2022-12-23T02:59:32.093Z,7.62
2022-12-23T03:00:32.098Z,7.60
2022-12-23T03:01:32.222Z,7.57
2022-12-23T03:02:32.340Z,7.54
2022-12-23T03:03:32.108Z,7.55
2022-12-23T03:04:32.037Z,7.55
2022-12-23T03:05:32.042Z,7.54
2022-12-23T03:06:32.059Z,7.54
2022-12-23T03:07:32.015Z,7.52
2022-12-23T03:08:32.038Z,7.51
2022-12-23T03:09:32.056Z,7.51
2022-12-23T03:10:31.985Z,7.51
2022-12-23T03:11:32.020Z,7.52
2022-12-23T03:12:31.958Z,7.52
2022-12-23T03:13:31.969Z,7.52
2022-12-23T03:14:31.952Z,7.52
2022-12-23T03:15:32.049Z,7.54
2022-12-23T03:16:31.942Z,7.57
2022-12-23T03:17:31.932Z,7.55
2022-12-23T03:18:31.919Z,7.57
2022-12-23T03:19:31.985Z,7.57
2022-12-23T03:20:31.880Z,7.57
2022-12-23T03:21:31.888Z,7.55
2022-12-23T03:22:31.873Z,7.52
2022-12-23T03:23:31.858Z,7.52
2022-12-23T03:24:31.853Z,7.54
2022-12-23T03:25:31.835Z,7.55
2022-12-23T03:26:31.864Z,7.58
2022-12-23T03:27:31.820Z,7.57
2022-12-23T03:28:31.813Z,7.60
2022-12-23T03:29:31.793Z,7.58
2022-12-23T03:30:31.796Z,7.58
2022-12-23T03:31:31.828Z,7.57
2022-12-23T03:32:31.777Z,7.57
2022-12-23T03:33:31.749Z,7.58
2022-12-23T03:34:31.746Z,7.58
2022-12-23T03:35:31.736Z,7.55
2022-12-23T03:36:31.763Z,7.60
2022-12-23T03:37:31.733Z,7.63
2022-12-23T03:38:31.711Z,7.62
2022-12-23T03:39:31.872Z,7.60
2022-12-23T03:40:31.692Z,7.63
2022-12-23T03:41:31.700Z,7.63
2022-12-23T03:42:31.683Z,7.63
2022-12-23T03:43:31.652Z,7.62
2022-12-23T03:44:31.683Z,7.62
2022-12-23T03:45:40.817Z,7.62
2022-12-23T03:46:31.713Z,7.60
2022-12-23T03:47:31.633Z,7.60
2022-12-23T03:48:31.621Z,7.58
2022-12-23T03:49:31.702Z,7.58
2022-12-23T03:50:31.598Z,7.58
2022-12-23T03:51:31.583Z,7.62
2022-12-23T03:52:31.725Z,7.60
2022-12-23T03:53:31.581Z,7.60
2022-12-23T03:54:31.582Z,7.58
2022-12-23T03:55:31.600Z,7.58
2022-12-23T03:56:31.557Z,7.57
2022-12-23T03:57:31.550Z,7.57
2022-12-23T03:58:31.529Z,7.60
2022-12-23T03:59:31.566Z,7.63
2022-12-23T04:00:31.492Z,7.66
2022-12-23T04:01:31.567Z,7.66
2022-12-23T04:02:31.717Z,7.66
2022-12-23T04:03:31.594Z,7.66
2022-12-23T04:04:31.516Z,7.67
2022-12-23T04:05:31.461Z,7.66
2022-12-23T04:06:31.444Z,7.67
2022-12-23T04:07:31.463Z,7.66
2022-12-23T04:08:31.429Z,7.66
2022-12-23T04:09:31.410Z,7.66
2022-12-23T04:10:31.432Z,7.62
2022-12-23T04:11:31.404Z,7.63
2022-12-23T04:12:31.394Z,7.62
2022-12-23T04:13:31.367Z,7.62
2022-12-23T04:14:31.457Z,7.63
2022-12-23T04:15:31.357Z,7.63
2022-12-23T04:16:31.394Z,7.63
2022-12-23T04:17:31.358Z,7.63
2022-12-23T04:18:31.330Z,7.63
2022-12-23T04:19:31.316Z,7.66
2022-12-23T04:20:31.322Z,7.66
2022-12-23T04:21:31.290Z,7.67
2022-12-23T04:22:31.294Z,7.66
2022-12-23T04:23:31.292Z,7.67
2022-12-23T04:24:31.339Z,7.66
2022-12-23T04:25:31.255Z,7.62
2022-12-23T04:26:31.240Z,7.63
2022-12-23T04:27:31.243Z,7.63
2022-12-23T04:28:31.223Z,7.63
2022-12-23T04:29:31.211Z,7.62
2022-12-23T04:30:34.396Z,7.63
2022-12-23T04:31:31.231Z,7.66
2022-12-23T04:32:31.206Z,7.67
2022-12-23T04:33:31.217Z,7.66
2022-12-23T04:34:31.159Z,7.67
2022-12-23T04:35:31.151Z,7.63
2022-12-23T04:36:31.151Z,7.66
2022-12-23T04:37:31.144Z,7.63
2022-12-23T04:38:31.129Z,7.66
2022-12-23T04:39:31.114Z,7.66
2022-12-23T04:40:31.099Z,7.66
2022-12-23T04:41:31.109Z,7.70
2022-12-23T04:42:31.098Z,7.73
2022-12-23T04:43:31.137Z,7.73
2022-12-23T04:44:31.077Z,7.74
2022-12-23T04:45:31.045Z,7.74
2022-12-23T04:46:31.112Z,7.73
2022-12-23T04:47:31.054Z,7.74
2022-12-23T04:48:31.030Z,7.74
2022-12-23T04:49:31.012Z,7.74
2022-12-23T04:50:31.014Z,7.73
2022-12-23T04:51:30.992Z,7.73
2022-12-23T04:52:30.987Z,7.73
2022-12-23T04:53:31.081Z,7.71
2022-12-23T04:54:31.078Z,7.70
2022-12-23T04:55:30.977Z,7.71
2022-12-23T04:56:30.949Z,7.71
2022-12-23T04:57:30.935Z,7.69
2022-12-23T04:58:30.948Z,7.70
2022-12-23T04:59:30.919Z,7.69
2022-12-23T05:00:37.181Z,7.69
2022-12-23T05:01:31.131Z,7.69
2022-12-23T05:02:31.034Z,7.70
2022-12-23T05:03:31.024Z,7.73
2022-12-23T05:04:30.904Z,7.73
2022-12-23T05:05:30.860Z,7.79
2022-12-23T05:06:30.849Z,7.77
2022-12-23T05:07:30.856Z,7.76
2022-12-23T05:08:30.853Z,7.79
2022-12-23T05:09:30.824Z,7.74
2022-12-23T05:10:30.819Z,7.74
2022-12-23T05:11:30.797Z,7.71
2022-12-23T05:12:30.797Z,7.71
2022-12-23T05:13:30.803Z,7.70
2022-12-23T05:14:30.779Z,7.69
2022-12-23T05:15:30.760Z,7.67
2022-12-23T05:16:30.835Z,7.67
2022-12-23T05:17:30.736Z,7.69
2022-12-23T05:18:30.752Z,7.67
2022-12-23T05:19:30.719Z,7.66
2022-12-23T05:20:30.751Z,7.63
2022-12-23T05:21:30.708Z,7.66
2022-12-23T05:22:30.690Z,7.66
2022-12-23T05:23:30.700Z,7.67
2022-12-23T05:24:30.682Z,7.67
2022-12-23T05:25:30.669Z,7.67
2022-12-23T05:26:30.691Z,7.70
2022-12-23T05:27:30.666Z,7.69
2022-12-23T05:28:30.654Z,7.69
2022-12-23T05:29:30.626Z,7.69
2022-12-23T05:30:30.615Z,7.69
2022-12-23T05:31:30.656Z,7.71
2022-12-23T05:32:30.594Z,7.70
2022-12-23T05:33:30.681Z,7.69
2022-12-23T05:34:30.641Z,7.69
2022-12-23T05:35:30.566Z,7.69
2022-12-23T05:36:30.570Z,7.69
2022-12-23T05:37:30.582Z,7.67
2022-12-23T05:38:30.562Z,7.69
2022-12-23T05:39:30.534Z,7.69
2022-12-23T05:40:31.683Z,7.69
2022-12-23T05:41:30.535Z,7.67
2022-12-23T05:42:30.508Z,7.67
2022-12-23T05:43:30.497Z,7.66
2022-12-23T05:44:30.504Z,7.66
2022-12-23T05:45:30.534Z,7.63
2022-12-23T05:46:30.526Z,7.67
2022-12-23T05:47:30.460Z,7.67
2022-12-23T05:48:30.461Z,7.67
2022-12-23T05:49:30.423Z,7.69
2022-12-23T05:50:30.467Z,7.66
2022-12-23T05:51:30.405Z,7.67
2022-12-23T05:52:30.405Z,7.67
2022-12-23T05:53:30.399Z,7.67
2022-12-23T05:54:30.391Z,7.67
2022-12-23T05:55:30.362Z,7.67
2022-12-23T05:56:30.357Z,7.69
2022-12-23T05:57:30.359Z,7.67
2022-12-23T05:58:30.354Z,7.69
2022-12-23T05:59:31.629Z,7.69
2022-12-23T06:00:30.316Z,7.69
2022-12-23T06:01:30.355Z,7.67
2022-12-23T06:02:30.507Z,7.67
2022-12-23T06:03:30.665Z,7.67
2022-12-23T06:04:30.288Z,7.63
2022-12-23T06:05:30.267Z,7.66
2022-12-23T06:06:30.266Z,7.67
2022-12-23T06:07:30.245Z,7.66
2022-12-23T06:08:30.258Z,7.62
2022-12-23T06:09:30.239Z,7.66
2022-12-23T06:10:30.223Z,7.66
2022-12-23T06:11:30.227Z,7.66
2022-12-23T06:12:30.204Z,7.66
2022-12-23T06:13:30.204Z,7.66
2022-12-23T06:14:30.216Z,7.66
2022-12-23T06:15:30.178Z,7.66
2022-12-23T06:16:30.235Z,7.66
2022-12-23T06:17:30.156Z,7.66
2022-12-23T06:18:30.164Z,7.63
2022-12-23T06:19:30.129Z,7.63
2022-12-23T06:20:30.125Z,7.63
2022-12-23T06:21:30.116Z,7.63
2022-12-23T06:22:30.105Z,7.66
2022-12-23T06:23:30.099Z,7.66
2022-12-23T06:24:30.082Z,7.63
2022-12-23T06:25:30.071Z,7.66
2022-12-23T06:26:30.072Z,7.66
2022-12-23T06:27:30.046Z,7.62
2022-12-23T06:28:30.075Z,7.66
2022-12-23T06:29:30.028Z,7.62
2022-12-23T06:30:30.042Z,7.66
2022-12-23T06:31:30.064Z,7.66
2022-12-23T06:32:34.504Z,7.67
2022-12-23T06:33:30.037Z,7.66
2022-12-23T06:34:30.007Z,7.67
2022-12-23T06:35:30.019Z,7.67
2022-12-23T06:36:29.975Z,7.66
2022-12-23T06:37:29.982Z,7.63
2022-12-23T06:38:29.985Z,7.66
2022-12-23T06:39:29.957Z,7.66
2022-12-23T06:40:29.958Z,7.69
2022-12-23T06:41:29.936Z,7.69
2022-12-23T06:42:30.007Z,7.67
2022-12-23T06:43:29.932Z,7.66
2022-12-23T06:44:29.919Z,7.67
2022-12-23T06:45:29.941Z,7.67
2022-12-23T06:46:30.033Z,7.67
2022-12-23T06:47:29.872Z,7.63
2022-12-23T06:48:29.867Z,7.62
2022-12-23T06:49:29.871Z,7.63
2022-12-23T06:50:29.835Z,7.63
2022-12-23T06:51:29.864Z,7.66
2022-12-23T06:52:29.889Z,7.66
2022-12-23T06:53:29.811Z,7.63
2022-12-23T06:54:29.854Z,7.66
2022-12-23T06:55:29.819Z,7.62
2022-12-23T06:56:29.795Z,7.62
2022-12-23T06:57:29.796Z,7.58
2022-12-23T06:58:29.759Z,7.58
2022-12-23T06:59:29.758Z,7.55
2022-12-23T07:00:29.767Z,7.60
2022-12-23T07:01:29.990Z,7.58
2022-12-23T07:02:29.796Z,7.58
2022-12-23T07:03:29.788Z,7.58
2022-12-23T07:04:29.693Z,7.60
2022-12-23T07:05:36.673Z,7.62
2022-12-23T07:06:29.636Z,7.62
2022-12-23T07:07:29.620Z,7.60
2022-12-23T07:08:29.611Z,7.58
2022-12-23T07:09:29.662Z,7.60
2022-12-23T07:10:29.784Z,7.62
2022-12-23T07:11:29.634Z,7.58
2022-12-23T07:12:29.628Z,7.60
2022-12-23T07:13:29.603Z,7.60
2022-12-23T07:14:29.614Z,7.60
2022-12-23T07:15:29.544Z,7.60
2022-12-23T07:16:29.595Z,7.60
2022-12-23T07:17:29.550Z,7.60
2022-12-23T07:18:29.511Z,7.60
2022-12-23T07:19:29.523Z,7.60
2022-12-23T07:20:29.513Z,7.58
2022-12-23T07:21:30.251Z,7.60
2022-12-23T07:22:29.477Z,7.57
2022-12-23T07:23:29.463Z,7.55
2022-12-23T07:24:29.489Z,7.55
2022-12-23T07:25:29.437Z,7.55
2022-12-23T07:26:29.433Z,7.54
2022-12-23T07:27:29.472Z,7.52
2022-12-23T07:28:29.415Z,7.52
2022-12-23T07:29:29.425Z,7.54
2022-12-23T07:30:29.426Z,7.54
2022-12-23T07:31:29.439Z,7.54
2022-12-23T07:32:29.384Z,7.55
2022-12-23T07:33:29.371Z,7.57
2022-12-23T07:34:29.376Z,7.55
2022-12-23T07:35:29.354Z,7.55
2022-12-23T07:36:29.338Z,7.54
2022-12-23T07:37:29.344Z,7.51
2022-12-23T07:38:29.324Z,7.52
2022-12-23T07:39:29.347Z,7.52
2022-12-23T07:40:29.296Z,7.52
2022-12-23T07:41:29.293Z,7.54
2022-12-23T07:42:46.544Z,7.55
2022-12-23T07:43:29.290Z,7.55
2022-12-23T07:44:29.280Z,7.55
2022-12-23T07:45:29.347Z,7.55
2022-12-23T07:46:29.376Z,7.55
2022-12-23T07:47:29.249Z,7.55
2022-12-23T07:48:29.216Z,7.54
2022-12-23T07:49:29.251Z,7.52
2022-12-23T07:50:29.207Z,7.52
2022-12-23T07:51:29.193Z,7.52
2022-12-23T07:52:29.182Z,7.52
2022-12-23T07:53:29.178Z,7.52
2022-12-23T07:54:29.191Z,7.52
2022-12-23T07:55:29.146Z,7.51
2022-12-23T07:56:29.306Z,7.51
2022-12-23T07:57:29.135Z,7.52
2022-12-23T07:58:29.123Z,7.50
2022-12-23T07:59:29.136Z,7.51
2022-12-23T08:00:29.220Z,7.50
2022-12-23T08:01:29.209Z,7.52
2022-12-23T08:02:29.343Z,7.52
2022-12-23T08:03:29.153Z,7.52
2022-12-23T08:04:29.144Z,7.52
2022-12-23T08:05:29.134Z,7.51
2022-12-23T08:06:29.070Z,7.51
2022-12-23T08:07:29.041Z,7.50
2022-12-23T08:08:29.027Z,7.50
2022-12-23T08:09:29.037Z,7.50
2022-12-23T08:10:28.999Z,7.50
2022-12-23T08:11:29.030Z,7.50
2022-12-23T08:12:29.021Z,7.50
2022-12-23T08:13:28.997Z,7.48
2022-12-23T08:14:28.986Z,7.50
2022-12-23T08:15:28.956Z,7.48
2022-12-23T08:16:29.011Z,7.48
2022-12-23T08:17:28.949Z,7.48
2022-12-23T08:18:28.942Z,7.48
2022-12-23T08:19:28.931Z,7.48
2022-12-23T08:20:28.915Z,7.48
2022-12-23T08:21:28.927Z,7.50
2022-12-23T08:22:28.934Z,7.50
2022-12-23T08:23:28.887Z,7.48
2022-12-23T08:24:28.931Z,7.48
2022-12-23T08:25:28.876Z,7.50
2022-12-23T08:26:28.850Z,7.48
2022-12-23T08:27:28.848Z,7.48
2022-12-23T08:28:28.833Z,7.51
2022-12-23T08:29:32.607Z,7.48
2022-12-23T08:30:28.908Z,7.47
2022-12-23T08:31:28.979Z,7.45
2022-12-23T08:32:28.802Z,7.47
2022-12-23T08:33:28.791Z,7.45
2022-12-23T08:34:28.798Z,7.47
2022-12-23T08:35:28.796Z,7.45
2022-12-23T08:36:28.782Z,7.47
2022-12-23T08:37:28.773Z,7.45
2022-12-23T08:38:28.733Z,7.45
2022-12-23T08:39:28.749Z,7.47
2022-12-23T08:40:28.743Z,7.44
2022-12-23T08:41:28.843Z,7.44
2022-12-23T08:42:28.696Z,7.47
2022-12-23T08:43:35.267Z,7.47
2022-12-23T08:44:28.781Z,7.45
2022-12-23T08:45:28.673Z,7.45
2022-12-23T08:46:28.692Z,7.45
2022-12-23T08:47:28.687Z,7.45
2022-12-23T08:48:28.632Z,7.45
2022-12-23T08:49:28.653Z,7.45
2022-12-23T08:50:28.617Z,7.48
2022-12-23T08:51:28.619Z,7.45
2022-12-23T08:52:28.606Z,7.45
2022-12-23T08:53:28.593Z,7.45
2022-12-23T08:54:28.592Z,7.47
2022-12-23T08:55:28.564Z,7.45
2022-12-23T08:56:28.569Z,7.45
2022-12-23T08:57:28.548Z,7.44
2022-12-23T08:58:28.548Z,7.44
2022-12-23T08:59:28.707Z,7.45
2022-12-23T09:00:28.560Z,7.44
2022-12-23T09:01:28.726Z,7.48
2022-12-23T09:02:28.644Z,7.48
2022-12-23T09:03:28.616Z,7.45
2022-12-23T09:04:28.488Z,7.48
2022-12-23T09:05:28.486Z,7.48
2022-12-23T09:06:30.598Z,7.48
2022-12-23T09:07:28.468Z,7.48
2022-12-23T09:08:28.457Z,7.47
2022-12-23T09:09:28.429Z,7.47
2022-12-23T09:10:28.445Z,7.47
2022-12-23T09:11:28.416Z,7.47
2022-12-23T09:12:28.409Z,7.47
2022-12-23T09:13:35.240Z,7.45
2022-12-23T09:14:28.386Z,7.45
2022-12-23T09:15:28.534Z,7.47
2022-12-23T09:16:28.447Z,7.47
2022-12-23T09:17:28.359Z,7.44
2022-12-23T09:18:28.412Z,7.45
2022-12-23T09:19:28.354Z,7.47
2022-12-23T09:20:28.353Z,7.47
2022-12-23T09:21:28.313Z,7.47
2022-12-23T09:22:29.513Z,7.45
2022-12-23T09:23:28.330Z,7.45
2022-12-23T09:24:28.286Z,7.47
2022-12-23T09:25:28.319Z,7.47
2022-12-23T09:26:28.269Z,7.47
2022-12-23T09:27:28.258Z,7.47
2022-12-23T09:28:28.300Z,7.44
2022-12-23T09:29:28.253Z,7.44
2022-12-23T09:30:28.313Z,7.44
2022-12-23T09:31:34.405Z,7.45
2022-12-23T09:32:28.212Z,7.44
2022-12-23T09:33:28.227Z,7.44
2022-12-23T09:34:28.178Z,7.45
2022-12-23T09:35:28.193Z,7.45
2022-12-23T09:36:28.177Z,7.45
2022-12-23T09:37:28.158Z,7.45
2022-12-23T09:38:28.149Z,7.47
2022-12-23T09:39:28.170Z,7.48
2022-12-23T09:40:28.142Z,7.47
2022-12-23T09:41:28.121Z,7.47
2022-12-23T09:42:28.122Z,7.44
2022-12-23T09:43:28.132Z,7.45
2022-12-23T09:44:28.093Z,7.45
2022-12-23T09:45:28.100Z,7.45
2022-12-23T09:46:28.109Z,7.45
2022-12-23T09:47:28.073Z,7.44
2022-12-23T09:48:28.053Z,7.44
2022-12-23T09:49:28.048Z,7.44
2022-12-23T09:50:28.060Z,7.41
2022-12-23T09:51:28.024Z,7.42
2022-12-23T09:52:28.012Z,7.44
2022-12-23T09:53:28.009Z,7.44
2022-12-23T09:54:27.999Z,7.44
2022-12-23T09:55:28.013Z,7.42
2022-12-23T09:56:27.969Z,7.44
2022-12-23T09:57:27.982Z,7.44
2022-12-23T09:58:27.964Z,7.45
2022-12-23T09:59:27.942Z,7.44
2022-12-23T10:00:27.941Z,7.44
2022-12-23T10:01:28.064Z,7.41
2022-12-23T10:02:28.173Z,7.44
2022-12-23T10:03:28.131Z,7.42
2022-12-23T10:04:27.950Z,7.45
2022-12-23T10:05:27.919Z,7.42
2022-12-23T10:06:27.881Z,7.42
2022-12-23T10:07:27.926Z,7.42
2022-12-23T10:08:27.903Z,7.42
2022-12-23T10:09:27.897Z,7.42
2022-12-23T10:10:27.858Z,7.42
2022-12-23T10:11:27.834Z,7.39
2022-12-23T10:12:30.691Z,7.41
2022-12-23T10:13:27.864Z,7.41
2022-12-23T10:14:27.792Z,7.41
2022-12-23T10:15:27.802Z,7.39
2022-12-23T10:16:27.805Z,7.39
2022-12-23T10:17:27.769Z,7.39
2022-12-23T10:18:27.800Z,7.39
2022-12-23T10:19:27.765Z,7.37
2022-12-23T10:20:27.768Z,7.39
2022-12-23T10:21:27.748Z,7.37
2022-12-23T10:22:27.752Z,7.37
2022-12-23T10:23:27.723Z,7.36
2022-12-23T10:24:27.736Z,7.36
2022-12-23T10:25:27.759Z,7.36
2022-12-23T10:26:27.704Z,7.34
2022-12-23T10:27:27.691Z,7.34
2022-12-23T10:28:29.720Z,7.33
2022-12-23T10:29:27.693Z,7.34
2022-12-23T10:30:54.038Z,7.33
2022-12-23T10:31:43.264Z,7.33
2022-12-23T10:32:27.725Z,7.33
2022-12-23T10:33:27.616Z,7.32
2022-12-23T10:34:29.966Z,7.32
2022-12-23T10:35:27.607Z,7.33
2022-12-23T10:36:27.644Z,7.32
2022-12-23T10:37:27.589Z,7.30
2022-12-23T10:38:27.560Z,7.30
2022-12-23T10:39:27.553Z,7.30
2022-12-23T10:40:27.562Z,7.30
2022-12-23T10:41:27.549Z,7.30
2022-12-23T10:42:27.539Z,7.29
2022-12-23T10:43:27.529Z,7.30
2022-12-23T10:44:27.504Z,7.30
2022-12-23T10:45:27.510Z,7.29
2022-12-23T10:46:27.536Z,7.27
2022-12-23T10:47:27.478Z,7.30
2022-12-23T10:48:27.464Z,7.30
2022-12-23T10:49:27.466Z,7.29
2022-12-23T10:50:27.509Z,7.29
2022-12-23T10:51:27.433Z,7.30
2022-12-23T10:52:27.427Z,7.30
2022-12-23T10:53:27.438Z,7.32
2022-12-23T10:54:27.406Z,7.32
2022-12-23T10:55:33.106Z,7.32
2022-12-23T10:56:27.390Z,7.32
2022-12-23T10:57:27.383Z,7.32
2022-12-23T10:58:27.376Z,7.32
2022-12-23T10:59:27.360Z,7.33
2022-12-23T11:00:27.384Z,7.34
2022-12-23T11:01:27.900Z,7.33
2022-12-23T11:02:27.598Z,7.33
2022-12-23T11:03:27.475Z,7.33
2022-12-23T11:04:27.305Z,7.33
2022-12-23T11:05:27.305Z,7.33
2022-12-23T11:06:33.148Z,7.33
2022-12-23T11:07:44.098Z,7.32
2022-12-23T11:08:27.284Z,7.32
2022-12-23T11:09:27.258Z,7.32
2022-12-23T11:10:27.261Z,7.32
2022-12-23T11:11:27.297Z,7.32
2022-12-23T11:12:27.225Z,7.32
2022-12-23T11:13:27.235Z,7.33
2022-12-23T11:14:27.219Z,7.32
2022-12-23T11:15:27.243Z,7.32
2022-12-23T11:16:27.301Z,7.30
2022-12-23T11:17:27.187Z,7.30
2022-12-23T11:18:27.172Z,7.32
2022-12-23T11:19:27.174Z,7.30
2022-12-23T11:20:27.157Z,7.32
2022-12-23T11:21:27.174Z,7.32
2022-12-23T11:22:27.130Z,7.33
2022-12-23T11:23:27.141Z,7.33
2022-12-23T11:24:27.134Z,7.32
2022-12-23T11:25:27.143Z,7.32
2022-12-23T11:26:27.122Z,7.33
2022-12-23T11:27:27.110Z,7.32
2022-12-23T11:28:27.092Z,7.32
2022-12-23T11:29:27.080Z,7.32
2022-12-23T11:30:27.076Z,7.34
2022-12-23T11:31:27.199Z,7.33
2022-12-23T11:32:27.051Z,7.33
2022-12-23T11:33:27.063Z,7.33
2022-12-23T11:34:27.100Z,7.34
2022-12-23T11:35:27.229Z,7.33
2022-12-23T11:36:27.040Z,7.33
2022-12-23T11:37:27.002Z,7.32
2022-12-23T11:38:26.993Z,7.34
2022-12-23T11:39:26.975Z,7.34
2022-12-23T11:40:26.969Z,7.33
2022-12-23T11:41:26.965Z,7.34
2022-12-23T11:42:26.940Z,7.33
2022-12-23T11:43:27.034Z,7.34
2022-12-23T11:44:26.993Z,7.33
2022-12-23T11:45:27.073Z,7.30
2022-12-23T11:46:27.085Z,7.32
2022-12-23T11:47:26.894Z,7.30
2022-12-23T11:48:26.917Z,7.30
2022-12-23T11:49:26.879Z,7.30
2022-12-23T11:50:26.865Z,7.30
2022-12-23T11:51:26.905Z,7.29
2022-12-23T11:52:26.852Z,7.27
2022-12-23T11:53:26.929Z,7.29
2022-12-23T11:54:26.833Z,7.27
2022-12-23T11:55:26.815Z,7.27
2022-12-23T11:56:26.919Z,7.29
2022-12-23T11:57:26.858Z,7.27
2022-12-23T11:58:26.784Z,7.26
2022-12-23T11:59:26.795Z,7.27
2022-12-23T12:00:26.767Z,7.27
2022-12-23T12:01:26.778Z,7.26
2022-12-23T12:02:26.893Z,7.26
2022-12-23T12:03:26.883Z,7.27
2022-12-23T12:04:26.783Z,7.26
2022-12-23T12:05:26.711Z,7.26
2022-12-23T12:06:26.730Z,7.26
2022-12-23T12:07:26.699Z,7.24
2022-12-23T12:08:26.701Z,7.26
2022-12-23T12:09:26.686Z,7.27
2022-12-23T12:10:26.673Z,7.27
2022-12-23T12:11:26.672Z,7.27
2022-12-23T12:12:26.649Z,7.30
2022-12-23T12:13:26.681Z,7.29
2022-12-23T12:14:26.742Z,7.30
2022-12-23T12:15:26.630Z,7.32
2022-12-23T12:16:26.738Z,7.30
2022-12-23T12:17:26.614Z,7.29
2022-12-23T12:18:26.647Z,7.30
2022-12-23T12:19:26.582Z,7.30
2022-12-23T12:20:26.604Z,7.29
2022-12-23T12:21:26.588Z,7.30
2022-12-23T12:22:26.557Z,7.30
2022-12-23T12:23:26.557Z,7.27
2022-12-23T12:24:26.535Z,7.30
2022-12-23T12:25:26.524Z,7.29
2022-12-23T12:26:26.534Z,7.32
2022-12-23T12:27:26.507Z,7.30
2022-12-23T12:28:26.513Z,7.30
2022-12-23T12:29:26.490Z,7.30
2022-12-23T12:30:26.569Z,7.32
2022-12-23T12:31:26.630Z,7.30
2022-12-23T12:32:26.458Z,7.30
2022-12-23T12:33:26.447Z,7.30
2022-12-23T12:34:26.437Z,7.32
2022-12-23T12:35:26.423Z,7.30
2022-12-23T12:36:26.507Z,7.32
2022-12-23T12:37:26.439Z,7.30
2022-12-23T12:38:26.397Z,7.33
2022-12-23T12:39:26.388Z,7.32
2022-12-23T12:40:26.381Z,7.33
2022-12-23T12:41:26.363Z,7.32
2022-12-23T12:42:26.381Z,7.32
2022-12-23T12:43:26.349Z,7.32
2022-12-23T12:44:26.369Z,7.33
2022-12-23T12:45:26.359Z,7.30
2022-12-23T12:46:26.388Z,7.32
2022-12-23T12:47:52.685Z,7.32
2022-12-23T12:48:26.305Z,7.32
2022-12-23T12:49:26.290Z,7.32
2022-12-23T12:50:26.296Z,7.33
2022-12-23T12:51:26.310Z,7.33
2022-12-23T12:52:26.305Z,7.32
2022-12-23T12:53:26.254Z,7.32
2022-12-23T12:54:26.246Z,7.30
2022-12-23T12:55:26.248Z,7.30
2022-12-23T12:56:26.232Z,7.32
2022-12-23T12:57:26.247Z,7.29
2022-12-23T12:58:26.200Z,7.29
2022-12-23T12:59:26.192Z,7.27
2022-12-23T13:00:26.178Z,7.29
2022-12-23T13:01:26.469Z,7.29
2022-12-23T13:02:26.347Z,7.29
2022-12-23T13:03:26.145Z,7.29
2022-12-23T13:04:26.148Z,7.29
2022-12-23T13:05:26.175Z,7.29
2022-12-23T13:06:26.128Z,7.29
2022-12-23T13:07:26.157Z,7.27
2022-12-23T13:08:26.122Z,7.27
2022-12-23T13:09:26.114Z,7.27
2022-12-23T13:10:26.103Z,7.27
2022-12-23T13:11:28.560Z,7.26
2022-12-23T13:12:26.100Z,7.27
2022-12-23T13:13:26.074Z,7.26
2022-12-23T13:14:26.071Z,7.26
2022-12-23T13:15:26.038Z,7.29
2022-12-23T13:16:26.046Z,7.29
2022-12-23T13:17:26.016Z,7.26
2022-12-23T13:18:26.004Z,7.29